createdAt,value
2019-03-09T00:00:49.915Z,61.13
2019-03-09T00:04:57.074Z,60.98
2019-03-09T00:09:05.089Z,61.02
2019-03-09T00:13:14.166Z,60.84
2019-03-09T00:17:20.998Z,60.79
2019-03-09T00:21:27.926Z,60.43
2019-03-09T00:25:38.652Z,59.94
2019-03-09T00:29:56.448Z,59.83
2019-03-09T00:34:03.698Z,59.47
2019-03-09T00:38:10.535Z,59.04
2019-03-09T00:42:17.454Z,58.96
2019-03-09T00:46:24.371Z,58.73
2019-03-09T00:50:31.342Z,58.30
2019-03-09T00:54:38.164Z,58.13
2019-03-09T00:58:45.016Z,57.86
2019-03-09T01:02:51.869Z,57.14
2019-03-09T01:06:58.792Z,56.82
2019-03-09T01:11:06.144Z,56.87
2019-03-09T01:15:15.887Z,56.58
2019-03-09T01:19:22.831Z,56.52
2019-03-09T01:23:29.824Z,56.49
2019-03-09T01:27:36.705Z,56.33
2019-03-09T01:31:43.620Z,56.23
2019-03-09T01:35:50.493Z,56.10
2019-03-09T01:39:57.399Z,56.01
2019-03-09T01:44:04.332Z,55.93
2019-03-09T01:48:11.248Z,55.62
2019-03-09T01:52:18.209Z,55.59
2019-03-09T01:56:25.199Z,55.42
2019-03-09T02:00:32.220Z,55.55
2019-03-09T02:04:39.081Z,55.46
2019-03-09T02:08:45.945Z,55.51
2019-03-09T02:12:52.984Z,55.70
2019-03-09T02:16:59.942Z,55.86
2019-03-09T02:21:06.859Z,55.82
2019-03-09T02:25:13.912Z,55.97
2019-03-09T02:29:20.758Z,56.01
2019-03-09T02:33:27.643Z,56.10
2019-03-09T02:37:34.564Z,56.35
2019-03-09T02:41:41.524Z,56.46
2019-03-09T02:45:48.475Z,56.60
2019-03-09T02:49:55.530Z,56.69
2019-03-09T02:54:02.505Z,56.84
2019-03-09T02:58:09.384Z,57.17
2019-03-09T03:02:30.064Z,58.33
2019-03-09T03:06:36.878Z,59.03
2019-03-09T03:10:45.007Z,58.86
2019-03-09T03:14:51.849Z,58.80
2019-03-09T03:18:58.758Z,58.77
2019-03-09T03:23:05.766Z,58.56
2019-03-09T03:27:12.613Z,59.27
2019-03-09T03:31:19.466Z,61.81
2019-03-09T03:35:26.302Z,63.90
2019-03-09T03:39:34.035Z,64.98
2019-03-09T03:43:40.878Z,66.12
2019-03-09T03:47:47.769Z,65.35
2019-03-09T03:51:54.638Z,65.49
2019-03-09T03:56:01.495Z,65.66
2019-03-09T04:00:09.727Z,66.00
2019-03-09T04:04:16.577Z,67.39
2019-03-09T04:08:23.783Z,68.29
2019-03-09T04:12:30.656Z,68.79
2019-03-09T04:16:37.459Z,68.66
2019-03-09T04:20:44.386Z,68.63
2019-03-09T04:24:54.410Z,68.07
2019-03-09T04:29:01.302Z,68.42
2019-03-09T04:33:08.155Z,68.90
2019-03-09T04:37:15.036Z,69.01
2019-03-09T04:41:23.485Z,69.11
2019-03-09T04:45:30.396Z,69.37
2019-03-09T04:49:37.388Z,69.63
2019-03-09T04:53:44.246Z,69.56
2019-03-09T04:57:51.369Z,70.44
2019-03-09T05:01:58.157Z,70.43
2019-03-09T05:06:05.299Z,70.85
2019-03-09T05:10:39.296Z,70.81
2019-03-09T05:14:46.137Z,71.02
2019-03-09T05:18:53.081Z,71.24
2019-03-09T05:22:59.885Z,71.24
2019-03-09T05:27:06.747Z,71.35
2019-03-09T05:31:13.623Z,71.69
2019-03-09T05:35:20.483Z,71.74
2019-03-09T05:39:27.313Z,71.87
2019-03-09T05:43:34.133Z,72.04
2019-03-09T05:47:40.952Z,72.42
2019-03-09T05:52:31.676Z,72.24
2019-03-09T05:56:39.581Z,72.46
2019-03-09T06:00:46.448Z,72.59
2019-03-09T06:04:53.666Z,72.78
2019-03-09T06:09:00.565Z,72.72
2019-03-09T06:13:09.078Z,73.05
2019-03-09T06:17:15.873Z,72.89
2019-03-09T06:21:22.835Z,72.93
2019-03-09T06:25:29.740Z,73.02
2019-03-09T06:29:36.618Z,72.95
2019-03-09T06:34:13.302Z,73.12
2019-03-09T06:39:01.423Z,73.06
2019-03-09T06:43:09.884Z,72.83
2019-03-09T06:47:16.732Z,73.15
2019-03-09T06:51:23.601Z,72.87
2019-03-09T06:55:30.827Z,73.02
2019-03-09T06:59:37.648Z,72.98
2019-03-09T07:03:45.598Z,72.89
2019-03-09T07:07:52.461Z,72.57
2019-03-09T07:11:59.324Z,72.77
2019-03-09T07:16:06.272Z,72.71
2019-03-09T07:20:13.262Z,72.38
2019-03-09T07:24:21.110Z,72.12
2019-03-09T07:28:28.014Z,71.58
2019-03-09T07:32:34.972Z,71.64
2019-03-09T07:36:41.995Z,71.53
2019-03-09T07:40:48.862Z,70.94
2019-03-09T07:44:55.770Z,71.39
2019-03-09T07:49:02.628Z,70.21
2019-03-09T07:53:10.631Z,70.49
2019-03-09T07:57:17.584Z,70.58
2019-03-09T08:01:24.409Z,70.53
2019-03-09T08:05:31.371Z,70.74
2019-03-09T08:09:38.305Z,70.84
2019-03-09T08:13:45.154Z,71.22
2019-03-09T08:17:52.012Z,70.89
2019-03-09T08:21:58.871Z,71.10
2019-03-09T08:26:05.802Z,70.50
2019-03-09T08:30:19.278Z,70.67
2019-03-09T08:34:26.170Z,70.49
2019-03-09T08:38:33.097Z,70.57
2019-03-09T08:42:39.984Z,70.33
2019-03-09T08:46:46.829Z,70.38
2019-03-09T08:50:53.951Z,70.28
2019-03-09T08:55:00.878Z,70.09
2019-03-09T08:59:07.787Z,69.81
2019-03-09T09:03:14.723Z,69.46
2019-03-09T09:07:22.494Z,69.43
2019-03-09T09:11:29.491Z,69.06
2019-03-09T09:15:36.385Z,69.09
2019-03-09T09:19:43.205Z,68.96
2019-03-09T09:23:50.085Z,68.79
2019-03-09T09:27:58.217Z,68.58
2019-03-09T09:32:05.938Z,68.47
2019-03-09T09:36:13.064Z,67.99
2019-03-09T09:40:21.551Z,67.93
2019-03-09T09:44:29.524Z,67.52
2019-03-09T09:48:37.687Z,67.12
2019-03-09T09:52:44.668Z,66.99
2019-03-09T09:56:52.546Z,66.47
2019-03-09T10:00:59.495Z,65.99
2019-03-09T10:05:06.828Z,65.74
2019-03-09T10:09:13.746Z,65.37
2019-03-09T10:13:20.564Z,65.39
2019-03-09T10:17:29.091Z,64.82
2019-03-09T10:21:36.007Z,64.82
2019-03-09T10:25:42.918Z,64.57
2019-03-09T10:29:49.908Z,64.42
2019-03-09T10:33:58.038Z,63.72
2019-03-09T10:38:04.973Z,63.09
2019-03-09T10:42:11.953Z,63.09
2019-03-09T10:46:21.789Z,62.33
2019-03-09T10:50:29.352Z,62.02
2019-03-09T10:54:36.562Z,61.78
2019-03-09T10:58:43.581Z,62.75
2019-03-09T11:02:53.291Z,63.36
2019-03-09T11:07:00.148Z,63.37
2019-03-09T11:11:08.461Z,62.99
2019-03-09T11:15:19.273Z,62.68
2019-03-09T11:19:26.266Z,62.87
2019-03-09T11:23:34.419Z,62.59
2019-03-09T11:27:43.582Z,62.71
2019-03-09T11:31:52.043Z,62.11
2019-03-09T11:35:59.024Z,61.68
2019-03-09T11:40:05.935Z,61.18
2019-03-09T11:44:12.845Z,61.15
2019-03-09T11:48:19.859Z,61.39
2019-03-09T11:52:29.080Z,61.21
2019-03-09T11:56:35.920Z,61.67
2019-03-09T12:00:43.466Z,61.70
2019-03-09T12:04:50.372Z,61.69
2019-03-09T12:09:01.527Z,61.43
2019-03-09T12:13:15.099Z,61.33
2019-03-09T12:17:19.127Z,61.33
2019-03-09T12:21:29.184Z,61.22
2019-03-09T12:25:36.268Z,61.57
2019-03-09T12:29:43.322Z,61.37
2019-03-09T12:33:50.493Z,61.34
2019-03-09T12:37:57.605Z,61.34
2019-03-09T12:42:05.328Z,61.63
2019-03-09T12:46:13.486Z,61.38
2019-03-09T12:50:21.866Z,60.98
2019-03-09T12:54:29.916Z,61.08
2019-03-09T12:58:36.997Z,61.04
2019-03-09T13:02:44.036Z,61.18
2019-03-09T13:06:50.999Z,61.21
2019-03-09T13:10:57.909Z,60.80
2019-03-09T13:15:05.653Z,60.82
2019-03-09T13:19:12.662Z,61.88
2019-03-09T13:23:20.042Z,62.05
2019-03-09T13:27:27.627Z,61.72
2019-03-09T13:31:35.286Z,62.44
2019-03-09T13:35:43.239Z,63.17
2019-03-09T13:39:50.161Z,62.62
2019-03-09T13:43:57.478Z,61.70
2019-03-09T13:48:05.688Z,61.89
2019-03-09T13:52:13.643Z,61.14
2019-03-09T13:56:20.734Z,60.35
2019-03-09T14:00:27.874Z,61.22
2019-03-09T14:04:34.823Z,60.70
2019-03-09T14:08:45.113Z,61.61
2019-03-09T14:12:53.955Z,62.78
2019-03-09T14:17:00.929Z,60.97
2019-03-09T14:21:07.947Z,61.40
2019-03-09T14:25:16.819Z,63.48
2019-03-09T14:29:23.800Z,62.88
2019-03-09T14:33:31.038Z,63.51
2019-03-09T14:37:38.422Z,64.33
2019-03-09T14:41:45.376Z,65.47
2019-03-09T14:45:53.674Z,64.74
2019-03-09T14:50:00.648Z,64.33
2019-03-09T14:54:07.431Z,64.20
2019-03-09T14:58:14.483Z,63.45
2019-03-09T15:02:21.531Z,62.15
2019-03-09T15:06:28.653Z,61.65
2019-03-09T15:10:35.559Z,61.43
2019-03-09T15:14:42.448Z,61.40
2019-03-09T15:18:49.371Z,61.34
2019-03-09T15:22:57.356Z,61.47
2019-03-09T15:27:04.247Z,61.08
2019-03-09T15:31:11.343Z,60.65
2019-03-09T15:35:18.344Z,60.67
2019-03-09T15:39:25.375Z,60.55
2019-03-09T15:43:32.504Z,60.55
2019-03-09T15:47:39.703Z,59.98
2019-03-09T15:51:46.662Z,59.72
2019-03-09T15:55:53.544Z,59.38
2019-03-09T16:00:00.468Z,58.97
2019-03-09T16:04:07.627Z,58.33
2019-03-09T16:08:14.692Z,57.92
2019-03-09T16:12:21.638Z,57.19
2019-03-09T16:16:28.700Z,56.79
2019-03-09T16:20:35.717Z,56.01
2019-03-09T16:24:43.557Z,54.75
2019-03-09T16:29:11.240Z,51.80
2019-03-09T16:33:18.327Z,50.37
2019-03-09T16:37:25.257Z,50.13
2019-03-09T16:41:33.240Z,49.72
2019-03-09T16:45:40.567Z,49.62
2019-03-09T16:49:47.466Z,49.45
2019-03-09T16:53:54.400Z,48.53
2019-03-09T16:58:01.240Z,48.64
2019-03-09T17:02:09.221Z,49.24
2019-03-09T17:06:16.113Z,48.86
2019-03-09T17:10:23.058Z,48.69
2019-03-09T17:14:30.329Z,48.47
2019-03-09T17:18:37.705Z,48.94
2019-03-09T17:22:44.560Z,48.57
2019-03-09T17:26:51.505Z,48.20
2019-03-09T17:30:58.572Z,48.17
2019-03-09T17:35:05.639Z,48.11
2019-03-09T17:39:13.194Z,48.17
2019-03-09T17:43:20.088Z,48.43
2019-03-09T17:47:27.373Z,48.73
2019-03-09T17:51:34.352Z,49.29
2019-03-09T17:55:41.280Z,48.40
2019-03-09T17:59:48.140Z,48.25
2019-03-09T18:03:56.349Z,48.87
2019-03-09T18:08:03.341Z,48.37
2019-03-09T18:12:10.224Z,48.72
2019-03-09T18:16:17.574Z,49.01
2019-03-09T18:20:24.468Z,49.16
2019-03-09T18:24:31.606Z,49.46
2019-03-09T18:28:38.511Z,49.58
2019-03-09T18:32:45.381Z,49.75
2019-03-09T18:36:52.202Z,54.59
2019-03-09T18:40:58.991Z,62.44
2019-03-09T18:45:06.459Z,65.36
2019-03-09T18:49:13.281Z,65.60
2019-03-09T18:53:20.176Z,66.42
2019-03-09T18:57:27.168Z,65.70
2019-03-09T19:01:34.026Z,67.07
2019-03-09T19:05:40.951Z,67.05
2019-03-09T19:09:47.864Z,68.39
2019-03-09T19:13:54.899Z,68.80
2019-03-09T19:18:01.899Z,68.13
2019-03-09T19:22:09.146Z,67.51
2019-03-09T19:26:16.210Z,66.97
2019-03-09T19:30:25.794Z,66.84
2019-03-09T19:34:32.689Z,67.74
2019-03-09T19:38:39.587Z,67.68
2019-03-09T19:42:56.384Z,66.94
2019-03-09T19:47:03.397Z,67.44
2019-03-09T19:51:10.238Z,67.72
2019-03-09T19:55:17.253Z,68.04
2019-03-09T19:59:24.373Z,68.18
2019-03-09T20:03:31.443Z,67.18
2019-03-09T20:07:38.620Z,67.42
2019-03-09T20:11:45.530Z,67.43
2019-03-09T20:15:52.439Z,67.69
2019-03-09T20:19:59.669Z,68.12
2019-03-09T20:24:06.550Z,68.16
2019-03-09T20:28:13.446Z,68.35
2019-03-09T20:32:20.380Z,68.80
2019-03-09T20:36:27.353Z,69.73
2019-03-09T20:40:40.643Z,70.31
2019-03-09T20:44:48.044Z,69.98
2019-03-09T20:48:54.992Z,70.71
2019-03-09T20:53:03.064Z,70.77
2019-03-09T20:57:09.955Z,71.21
2019-03-09T21:01:16.928Z,70.85
2019-03-09T21:05:23.950Z,71.25
2019-03-09T21:09:31.489Z,71.29
2019-03-09T21:13:38.739Z,71.71
2019-03-09T21:17:45.862Z,71.38
2019-03-09T21:21:53.083Z,72.10
2019-03-09T21:26:00.007Z,71.91
2019-03-09T21:30:07.844Z,72.26
2019-03-09T21:34:15.259Z,71.98
2019-03-09T21:38:22.274Z,72.41
2019-03-09T21:42:29.272Z,72.62
2019-03-09T21:46:36.225Z,72.99
2019-03-09T21:50:43.456Z,72.99
2019-03-09T21:54:50.425Z,72.74
2019-03-09T21:58:57.525Z,73.57
2019-03-09T22:03:04.542Z,72.87
2019-03-09T22:07:11.395Z,72.69
2019-03-09T22:11:18.475Z,73.23
2019-03-09T22:15:25.373Z,72.69
2019-03-09T22:19:32.392Z,73.15
2019-03-09T22:23:44.036Z,72.05
2019-03-09T22:27:47.888Z,72.17
2019-03-09T22:31:54.714Z,71.96
2019-03-09T22:36:01.745Z,72.02
2019-03-09T22:40:12.583Z,71.73
2019-03-09T22:44:19.596Z,71.65
2019-03-09T22:48:28.360Z,71.14
2019-03-09T22:52:35.224Z,71.05
2019-03-09T22:56:42.147Z,71.99
2019-03-09T23:00:49.403Z,72.12
2019-03-09T23:05:05.136Z,71.58
2019-03-09T23:09:12.674Z,72.31
2019-03-09T23:13:20.082Z,72.58
2019-03-09T23:17:27.385Z,71.00
2019-03-09T23:21:34.546Z,70.49
2019-03-09T23:25:41.558Z,69.14
2019-03-09T23:29:48.463Z,68.88
2019-03-09T23:33:55.367Z,63.30
2019-03-09T23:38:02.440Z,65.27
2019-03-09T23:42:09.582Z,66.52
2019-03-09T23:46:16.532Z,67.09
2019-03-09T23:50:23.786Z,63.37
2019-03-09T23:54:30.696Z,61.83
2019-03-09T23:58:37.922Z,63.34
